ADDS METAR Data INFO
IDs: Format: Raw Decoded Include TAF

Data at: 1314 UTC 19 Jan 2018

METAR for:KFFT (Frankfort/Capital Ci, KY, US)
Text:KFFT 191253Z AUTO 20009KT 10SM CLR M06/M12 A3021 RMK AO2 SLP241 T10611122
Temperature: -6.1°C ( 21°F)
Dewpoint:-12.2°C ( 10°F) [RH = 62%]
Pressure (altimeter):30.21 inches Hg (1023.1 mb) [Sea level pressure: 1024.1 mb]
Winds:from the SSW (200 degrees) at 10 MPH (9 knots; 4.6 m/s)
Visibility:10 or more sm (16+ km)
Ceiling:at least 12,000 feet AGL
Clouds:sky clear below 12,000 feet AGL
QC Flag:automated observation with no human augmentation